createdAt,value
2023-01-13T00:54:25.025Z,95170.00
2023-01-13T00:55:25.974Z,95172.00
2023-01-13T00:56:39.736Z,95164.00
2023-01-13T00:57:25.963Z,95162.00
2023-01-13T00:58:25.949Z,95160.00
2023-01-13T00:59:25.946Z,95160.00
2023-01-13T01:00:25.930Z,95158.00
2023-01-13T01:01:26.042Z,95160.00
2023-01-13T01:02:25.981Z,95164.00
2023-01-13T01:03:25.901Z,95168.00
2023-01-13T01:04:25.899Z,95176.00
2023-01-13T01:05:25.889Z,95174.00
2023-01-13T01:06:25.878Z,95172.00
2023-01-13T01:07:25.879Z,95168.00
2023-01-13T01:08:25.865Z,95170.00
2023-01-13T01:09:25.847Z,95174.00
2023-01-13T01:10:25.863Z,95181.00
2023-01-13T01:11:25.839Z,95187.00
2023-01-13T01:12:25.832Z,95195.00
2023-01-13T01:13:25.823Z,95197.00
2023-01-13T01:14:25.806Z,95197.00
2023-01-13T01:15:25.792Z,95199.00
2023-01-13T01:16:25.879Z,95197.00
2023-01-13T01:17:25.773Z,95199.00
2023-01-13T01:18:25.808Z,95199.00
2023-01-13T01:19:25.769Z,95201.00
2023-01-13T01:20:25.763Z,95195.00
2023-01-13T01:21:25.746Z,95197.00
2023-01-13T01:22:25.729Z,95199.00
2023-01-13T01:23:25.724Z,95201.00
2023-01-13T01:24:25.720Z,95197.00
2023-01-13T01:25:25.708Z,95189.00
2023-01-13T01:26:25.726Z,95185.00
2023-01-13T01:27:25.689Z,95185.00
2023-01-13T01:28:25.677Z,95185.00
2023-01-13T01:29:25.700Z,95183.00
2023-01-13T01:30:25.662Z,95185.00
2023-01-13T01:31:25.698Z,95187.00
2023-01-13T01:32:25.640Z,95187.00
2023-01-13T01:33:25.632Z,95185.00
2023-01-13T01:34:25.633Z,95183.00
2023-01-13T01:35:25.620Z,95183.00
2023-01-13T01:36:25.614Z,95183.00
2023-01-13T01:37:25.594Z,95179.00
2023-01-13T01:38:25.588Z,95181.00
2023-01-13T01:39:25.610Z,95176.00
2023-01-13T01:40:25.568Z,95176.00
2023-01-13T01:41:25.566Z,95177.00
2023-01-13T01:42:25.589Z,95174.00
2023-01-13T01:43:25.540Z,95176.00
2023-01-13T01:44:25.537Z,95176.00
2023-01-13T01:45:25.527Z,95172.00
2023-01-13T01:46:25.606Z,95170.00
2023-01-13T01:47:25.512Z,95170.00
2023-01-13T01:48:25.499Z,95170.00
2023-01-13T01:49:25.495Z,95174.00
2023-01-13T01:50:26.081Z,95174.00
2023-01-13T01:51:25.471Z,95174.00
2023-01-13T01:52:25.466Z,95174.00
2023-01-13T01:53:25.466Z,95174.00
2023-01-13T01:54:25.449Z,95174.00
2023-01-13T01:55:25.443Z,95174.00
2023-01-13T01:56:25.431Z,95177.00
2023-01-13T01:57:25.435Z,95179.00
2023-01-13T01:58:25.435Z,95177.00
2023-01-13T01:59:25.399Z,95179.00
2023-01-13T02:00:25.392Z,95179.00
2023-01-13T02:01:25.546Z,95181.00
2023-01-13T02:02:25.433Z,95181.00
2023-01-13T02:03:25.376Z,95181.00
2023-01-13T02:04:25.360Z,95181.00
2023-01-13T02:05:25.347Z,95177.00
2023-01-13T02:06:25.350Z,95177.00
2023-01-13T02:07:25.384Z,95176.00
2023-01-13T02:08:25.327Z,95172.00
2023-01-13T02:09:25.315Z,95170.00
2023-01-13T02:10:25.317Z,95174.00
2023-01-13T02:11:25.304Z,95172.00
2023-01-13T02:12:25.323Z,95172.00
2023-01-13T02:13:25.280Z,95174.00
2023-01-13T02:14:25.296Z,95168.00
2023-01-13T02:15:25.263Z,95168.00
2023-01-13T02:16:25.307Z,95166.00
2023-01-13T02:17:25.247Z,95166.00
2023-01-13T02:18:25.245Z,95166.00
2023-01-13T02:19:25.233Z,95168.00
2023-01-13T02:20:25.216Z,95166.00
2023-01-13T02:21:25.215Z,95166.00
2023-01-13T02:22:25.202Z,95164.00
2023-01-13T02:23:25.197Z,95166.00
2023-01-13T02:24:25.196Z,95164.00
2023-01-13T02:25:25.197Z,95164.00
2023-01-13T02:26:25.167Z,95164.00
2023-01-13T02:27:25.156Z,95162.00
2023-01-13T02:28:25.157Z,95164.00
2023-01-13T02:29:25.140Z,95164.00
2023-01-13T02:30:25.167Z,95162.00
2023-01-13T02:31:25.205Z,95162.00
2023-01-13T02:32:25.119Z,95162.00
2023-01-13T02:33:25.129Z,95158.00
2023-01-13T02:34:25.110Z,95146.00
2023-01-13T02:35:25.095Z,95144.00
2023-01-13T02:36:25.084Z,95140.00
2023-01-13T02:37:25.080Z,95138.00
2023-01-13T02:38:25.071Z,95138.00
2023-01-13T02:39:25.054Z,95136.00
2023-01-13T02:40:25.071Z,95138.00
2023-01-13T02:41:25.044Z,95136.00
2023-01-13T02:42:25.034Z,95136.00
2023-01-13T02:43:25.020Z,95138.00
2023-01-13T02:44:25.013Z,95138.00
2023-01-13T02:45:25.049Z,95136.00
2023-01-13T02:46:25.027Z,95136.00
2023-01-13T02:47:24.993Z,95132.00
2023-01-13T02:48:25.008Z,95128.00
2023-01-13T02:49:24.964Z,95126.00
2023-01-13T02:50:24.974Z,95132.00
2023-01-13T02:51:24.943Z,95136.00
2023-01-13T02:52:24.939Z,95140.00
2023-01-13T02:53:24.932Z,95142.00
2023-01-13T02:54:24.920Z,95144.00
2023-01-13T02:55:24.912Z,95142.00
2023-01-13T02:56:24.904Z,95140.00
2023-01-13T02:57:24.892Z,95142.00
2023-01-13T02:58:24.943Z,95144.00
2023-01-13T02:59:24.874Z,95146.00
2023-01-13T03:00:24.866Z,95154.00
2023-01-13T03:01:25.008Z,95158.00
2023-01-13T03:02:24.922Z,95158.00
2023-01-13T03:03:24.903Z,95156.00
2023-01-13T03:04:24.837Z,95146.00
2023-01-13T03:05:24.823Z,95146.00
2023-01-13T03:06:24.814Z,95140.00
2023-01-13T03:07:24.811Z,95138.00
2023-01-13T03:08:24.799Z,95138.00
2023-01-13T03:09:24.802Z,95138.00
2023-01-13T03:10:24.784Z,95136.00
2023-01-13T03:11:24.773Z,95136.00
2023-01-13T03:12:24.760Z,95134.00
2023-01-13T03:13:24.753Z,95132.00
2023-01-13T03:14:24.743Z,95132.00
2023-01-13T03:15:24.743Z,95130.00
2023-01-13T03:16:24.796Z,95126.00
2023-01-13T03:17:24.736Z,95126.00
2023-01-13T03:18:24.728Z,95126.00
2023-01-13T03:19:24.705Z,95126.00
2023-01-13T03:20:24.691Z,95130.00
2023-01-13T03:21:24.729Z,95128.00
2023-01-13T03:22:24.670Z,95124.00
2023-01-13T03:23:24.698Z,95124.00
2023-01-13T03:24:24.664Z,95119.00
2023-01-13T03:25:24.644Z,95115.00
2023-01-13T03:26:24.648Z,95117.00
2023-01-13T03:27:24.625Z,95115.00
2023-01-13T03:28:24.632Z,95117.00
2023-01-13T03:29:24.612Z,95117.00
2023-01-13T03:30:24.701Z,95113.00
2023-01-13T03:31:24.597Z,95115.00
2023-01-13T03:32:24.583Z,95113.00
2023-01-13T03:33:24.571Z,95117.00
2023-01-13T03:34:24.588Z,95117.00
2023-01-13T03:35:24.552Z,95117.00
2023-01-13T03:36:24.549Z,95115.00
2023-01-13T03:37:24.547Z,95115.00
2023-01-13T03:38:24.532Z,95117.00
2023-01-13T03:39:24.522Z,95119.00
2023-01-13T03:40:24.529Z,95113.00
2023-01-13T03:41:24.517Z,95113.00
2023-01-13T03:42:24.505Z,95109.00
2023-01-13T03:43:24.490Z,95109.00
2023-01-13T03:44:24.542Z,95105.00
2023-01-13T03:45:24.471Z,95107.00
2023-01-13T03:46:24.549Z,95109.00
2023-01-13T03:47:24.443Z,95107.00
2023-01-13T03:48:24.444Z,95109.00
2023-01-13T03:49:24.428Z,95111.00
2023-01-13T03:50:24.463Z,95111.00
2023-01-13T03:51:24.412Z,95109.00
2023-01-13T03:52:24.414Z,95111.00
2023-01-13T03:53:24.408Z,95113.00
2023-01-13T03:54:24.388Z,95115.00
2023-01-13T03:55:24.373Z,95119.00
2023-01-13T03:56:24.371Z,95115.00
2023-01-13T03:57:24.357Z,95117.00
2023-01-13T03:58:24.349Z,95117.00
2023-01-13T03:59:24.345Z,95115.00
2023-01-13T04:00:24.337Z,95117.00
2023-01-13T04:01:24.449Z,95119.00
2023-01-13T04:02:24.316Z,95121.00
2023-01-13T04:03:24.417Z,95119.00
2023-01-13T04:04:24.300Z,95123.00
2023-01-13T04:05:24.287Z,95123.00
2023-01-13T04:06:24.314Z,95126.00
2023-01-13T04:07:24.271Z,95128.00
2023-01-13T04:08:24.262Z,95126.00
2023-01-13T04:09:24.252Z,95128.00
2023-01-13T04:10:24.249Z,95132.00
2023-01-13T04:11:24.234Z,95134.00
2023-01-13T04:12:24.224Z,95134.00
2023-01-13T04:13:24.224Z,95138.00
2023-01-13T04:14:24.208Z,95136.00
2023-01-13T04:15:24.275Z,95136.00
2023-01-13T04:16:24.250Z,95134.00
2023-01-13T04:17:24.186Z,95138.00
2023-01-13T04:19:24.160Z,95136.00
2023-01-13T04:20:24.160Z,95134.00
2023-01-13T04:21:24.149Z,95136.00
2023-01-13T04:22:24.176Z,95136.00
2023-01-13T04:23:24.128Z,95134.00
2023-01-13T04:24:24.124Z,95130.00
2023-01-13T04:25:24.108Z,95130.00
2023-01-13T04:26:24.104Z,95126.00
2023-01-13T04:27:24.116Z,95128.00
2023-01-13T04:28:24.094Z,95124.00
2023-01-13T04:29:24.082Z,95128.00
2023-01-13T04:30:24.074Z,95128.00
2023-01-13T04:31:24.152Z,95126.00
2023-01-13T04:32:24.049Z,95124.00
2023-01-13T04:33:24.039Z,95119.00
2023-01-13T04:34:24.146Z,95119.00
2023-01-13T04:35:24.027Z,95119.00
2023-01-13T04:36:24.015Z,95123.00
2023-01-13T04:37:24.019Z,95123.00
2023-01-13T04:38:24.022Z,95123.00
2023-01-13T04:39:23.990Z,95121.00
2023-01-13T04:40:23.977Z,95119.00
2023-01-13T04:41:23.976Z,95117.00
2023-01-13T04:42:23.960Z,95115.00
2023-01-13T04:43:23.956Z,95117.00
2023-01-13T04:44:23.944Z,95115.00
2023-01-13T04:45:23.944Z,95113.00
2023-01-13T04:46:23.981Z,95109.00
2023-01-13T04:48:23.911Z,95107.00
2023-01-13T04:49:23.900Z,95107.00
2023-01-13T04:50:23.890Z,95109.00
2023-01-13T04:51:23.890Z,95113.00
2023-01-13T04:52:23.886Z,95113.00
2023-01-13T04:53:23.866Z,95115.00
2023-01-13T04:54:23.883Z,95119.00
2023-01-13T04:55:23.856Z,95124.00
2023-01-13T04:56:23.849Z,95132.00
2023-01-13T04:57:23.829Z,95126.00
2023-01-13T04:58:23.828Z,95123.00
2023-01-13T04:59:23.819Z,95126.00
2023-01-13T05:00:23.794Z,95123.00
2023-01-13T05:01:23.927Z,95132.00
2023-01-13T05:02:23.860Z,95132.00
2023-01-13T05:03:23.770Z,95130.00
2023-01-13T05:04:23.797Z,95128.00
2023-01-13T05:05:23.759Z,95123.00
2023-01-13T05:06:23.756Z,95119.00
2023-01-13T05:07:23.739Z,95115.00
2023-01-13T05:08:23.731Z,95123.00
2023-01-13T05:09:23.721Z,95117.00
2023-01-13T05:10:24.222Z,95121.00
2023-01-13T05:11:23.713Z,95119.00
2023-01-13T05:12:23.694Z,95123.00
2023-01-13T05:13:23.693Z,95123.00
2023-01-13T05:14:23.702Z,95119.00
2023-01-13T05:15:23.669Z,95115.00
2023-01-13T05:16:23.764Z,95115.00
2023-01-13T05:17:23.647Z,95115.00
2023-01-13T05:18:23.642Z,95117.00
2023-01-13T05:19:23.641Z,95121.00
2023-01-13T05:20:23.625Z,95117.00
2023-01-13T05:21:23.641Z,95115.00
2023-01-13T05:22:23.601Z,95111.00
2023-01-13T05:23:23.634Z,95113.00
2023-01-13T05:24:23.668Z,95117.00
2023-01-13T05:25:23.576Z,95119.00
2023-01-13T05:26:23.599Z,95123.00
2023-01-13T05:27:23.568Z,95121.00
2023-01-13T05:28:23.555Z,95121.00
2023-01-13T05:29:23.555Z,95117.00
2023-01-13T05:30:23.537Z,95111.00
2023-01-13T05:31:23.577Z,95117.00
2023-01-13T05:32:23.528Z,95121.00
2023-01-13T05:33:23.525Z,95124.00
2023-01-13T05:34:23.504Z,95117.00
2023-01-13T05:35:23.509Z,95107.00
2023-01-13T05:36:23.497Z,95097.00
2023-01-13T05:37:23.549Z,95097.00
2023-01-13T05:38:23.496Z,95103.00
2023-01-13T05:39:23.481Z,95107.00
2023-01-13T05:40:23.454Z,95099.00
2023-01-13T05:41:23.440Z,95079.00
2023-01-13T05:42:23.458Z,95076.00
2023-01-13T05:43:23.428Z,95087.00
2023-01-13T05:44:23.411Z,95093.00
2023-01-13T05:45:23.406Z,95101.00
2023-01-13T05:46:23.423Z,95103.00
2023-01-13T05:47:23.382Z,95101.00
2023-01-13T05:48:23.380Z,95101.00
2023-01-13T05:49:23.378Z,95101.00
2023-01-13T05:50:23.359Z,95107.00
2023-01-13T05:51:23.350Z,95107.00
2023-01-13T05:52:23.337Z,95107.00
2023-01-13T05:53:23.330Z,95111.00
2023-01-13T05:54:23.331Z,95107.00
2023-01-13T05:55:23.325Z,95101.00
2023-01-13T05:56:23.304Z,95101.00
2023-01-13T05:57:23.301Z,95097.00
2023-01-13T05:58:23.316Z,95093.00
2023-01-13T05:59:23.283Z,95091.00
2023-01-13T06:00:23.287Z,95089.00
2023-01-13T06:01:23.360Z,95079.00
2023-01-13T06:02:23.251Z,95081.00
2023-01-13T06:03:23.248Z,95074.00
2023-01-13T06:04:23.268Z,95077.00
2023-01-13T06:05:23.236Z,95083.00
2023-01-13T06:06:23.223Z,95087.00
2023-01-13T06:07:23.208Z,95091.00
2023-01-13T06:08:23.680Z,95091.00
2023-01-13T06:09:23.189Z,95091.00
2023-01-13T06:10:23.180Z,95089.00
2023-01-13T06:11:23.192Z,95093.00
2023-01-13T06:12:23.166Z,95095.00
2023-01-13T06:13:23.160Z,95087.00
2023-01-13T06:14:23.176Z,95087.00
2023-01-13T06:15:23.139Z,95087.00
2023-01-13T06:16:23.195Z,95085.00
2023-01-13T06:17:23.122Z,95081.00
2023-01-13T06:18:23.138Z,95081.00
2023-01-13T06:19:23.136Z,95081.00
2023-01-13T06:20:23.100Z,95074.00
2023-01-13T06:21:23.187Z,95072.00
2023-01-13T06:22:23.080Z,95076.00
2023-01-13T06:23:23.086Z,95076.00
2023-01-13T06:24:23.183Z,95072.00
2023-01-13T06:25:23.066Z,95072.00
2023-01-13T06:26:23.054Z,95074.00
2023-01-13T06:27:23.057Z,95072.00
2023-01-13T06:28:23.189Z,95070.00
2023-01-13T06:29:23.020Z,95068.00
2023-01-13T06:30:23.037Z,95066.00
2023-01-13T06:31:23.086Z,95064.00
2023-01-13T06:32:22.988Z,95064.00
2023-01-13T06:33:23.028Z,95060.00
2023-01-13T06:34:22.973Z,95056.00
2023-01-13T06:35:22.966Z,95056.00
2023-01-13T06:36:23.191Z,95052.00
2023-01-13T06:37:22.958Z,95052.00
2023-01-13T06:38:22.953Z,95048.00
2023-01-13T06:39:22.935Z,95048.00
2023-01-13T06:40:23.927Z,95042.00
2023-01-13T06:41:22.911Z,95042.00
2023-01-13T06:43:23.210Z,95036.00
2023-01-13T06:44:22.881Z,95032.00
2023-01-13T06:45:22.874Z,95029.00
2023-01-13T06:46:22.959Z,95030.00
2023-01-13T06:47:22.854Z,95030.00
2023-01-13T06:48:24.655Z,95034.00
2023-01-13T06:49:22.852Z,95036.00
2023-01-13T06:50:22.823Z,95036.00
2023-01-13T06:51:22.825Z,95042.00
2023-01-13T06:52:23.209Z,95040.00
2023-01-13T06:53:23.232Z,95038.00
2023-01-13T06:54:22.802Z,95042.00
2023-01-13T06:55:23.377Z,95046.00
2023-01-13T06:56:22.822Z,95048.00
2023-01-13T06:57:22.782Z,95050.00
2023-01-13T06:58:23.195Z,95050.00
2023-01-13T06:59:22.767Z,95054.00
2023-01-13T07:00:22.797Z,95056.00
2023-01-13T07:01:22.947Z,95056.00
2023-01-13T07:02:22.920Z,95056.00
2023-01-13T07:03:23.198Z,95058.00
2023-01-13T07:04:22.708Z,95064.00
2023-01-13T07:05:22.688Z,95066.00
2023-01-13T07:06:22.694Z,95064.00
2023-01-13T07:07:22.670Z,95058.00
2023-01-13T07:08:22.904Z,95070.00
2023-01-13T07:09:22.660Z,95068.00
2023-01-13T07:10:22.826Z,95064.00
2023-01-13T07:11:22.707Z,95060.00
2023-01-13T07:12:22.657Z,95056.00
2023-01-13T07:13:22.618Z,95056.00
2023-01-13T07:14:22.652Z,95056.00
2023-01-13T07:16:22.642Z,95046.00
2023-01-13T07:17:22.632Z,95048.00
2023-01-13T07:18:23.168Z,95054.00
2023-01-13T07:19:22.706Z,95052.00
2023-01-13T07:20:22.588Z,95046.00
2023-01-13T07:21:21.582Z,95042.00
2023-01-13T07:22:22.575Z,95040.00
2023-01-13T07:23:22.738Z,95042.00
2023-01-13T07:24:22.965Z,95046.00
2023-01-13T07:25:22.518Z,95048.00
2023-01-13T07:26:22.548Z,95054.00
2023-01-13T07:27:22.496Z,95054.00
2023-01-13T07:28:22.490Z,95052.00
2023-01-13T07:29:22.805Z,95048.00
2023-01-13T07:30:22.510Z,95050.00
2023-01-13T07:31:22.503Z,95048.00
2023-01-13T07:32:22.450Z,95052.00
2023-01-13T07:33:22.458Z,95056.00
2023-01-13T07:34:22.470Z,95054.00
2023-01-13T07:35:22.420Z,95054.00
2023-01-13T07:36:22.420Z,95046.00
2023-01-13T07:37:22.709Z,95042.00
2023-01-13T07:38:22.391Z,95040.00
2023-01-13T07:39:22.389Z,95036.00
2023-01-13T07:40:22.714Z,95032.00
2023-01-13T07:41:22.372Z,95034.00
2023-01-13T07:42:22.365Z,95032.00
2023-01-13T07:43:22.354Z,95029.00
2023-01-13T07:44:22.354Z,95030.00
2023-01-13T07:45:22.371Z,95029.00
2023-01-13T07:46:22.322Z,95030.00
2023-01-13T07:47:22.319Z,95032.00
2023-01-13T07:48:22.712Z,95036.00
2023-01-13T07:49:22.293Z,95036.00
2023-01-13T07:50:22.311Z,95032.00
2023-01-13T07:51:22.307Z,95036.00
2023-01-13T07:52:22.270Z,95036.00
2023-01-13T07:53:22.776Z,95038.00
2023-01-13T07:54:35.227Z,95036.00
2023-01-13T07:55:22.249Z,95034.00
2023-01-13T07:56:22.724Z,95034.00
2023-01-13T07:57:22.239Z,95036.00
2023-01-13T07:58:22.215Z,95038.00
2023-01-13T07:59:22.218Z,95044.00
2023-01-13T08:00:22.198Z,95040.00
2023-01-13T08:01:22.395Z,95038.00
2023-01-13T08:02:22.458Z,95036.00
2023-01-13T08:03:22.169Z,95036.00
2023-01-13T08:04:22.170Z,95038.00
2023-01-13T08:05:22.164Z,95040.00
2023-01-13T08:06:22.180Z,95042.00
2023-01-13T08:07:22.153Z,95044.00
2023-01-13T08:08:22.157Z,95044.00
2023-01-13T08:09:22.248Z,95048.00
2023-01-13T08:10:22.496Z,95048.00
2023-01-13T08:11:23.611Z,95046.00
2023-01-13T08:12:22.246Z,95044.00
2023-01-13T08:13:22.228Z,95044.00
2023-01-13T08:15:22.217Z,95046.00
2023-01-13T08:16:22.246Z,95040.00
2023-01-13T08:17:22.220Z,95038.00
2023-01-13T08:18:22.489Z,95036.00
2023-01-13T08:19:22.181Z,95032.00
2023-01-13T08:20:22.246Z,95030.00
2023-01-13T08:21:22.175Z,95025.00
2023-01-13T08:22:22.180Z,95027.00
2023-01-13T08:23:22.139Z,95032.00
2023-01-13T08:24:22.143Z,95036.00
2023-01-13T08:25:22.311Z,95040.00
2023-01-13T08:26:22.172Z,95040.00
2023-01-13T08:27:22.132Z,95040.00
2023-01-13T08:28:22.116Z,95038.00
2023-01-13T08:29:22.135Z,95038.00
2023-01-13T08:30:22.268Z,95036.00
2023-01-13T08:31:22.161Z,95036.00
2023-01-13T08:32:22.698Z,95036.00
2023-01-13T08:33:22.088Z,95040.00
2023-01-13T08:34:22.227Z,95040.00
2023-01-13T08:35:22.256Z,95040.00
2023-01-13T08:36:22.078Z,95042.00
2023-01-13T08:37:22.039Z,95042.00
2023-01-13T08:38:22.284Z,95040.00
2023-01-13T08:39:22.031Z,95042.00
2023-01-13T08:40:22.049Z,95044.00
2023-01-13T08:41:21.992Z,95048.00
2023-01-13T08:42:21.978Z,95048.00
2023-01-13T08:43:22.260Z,95056.00
2023-01-13T08:44:22.343Z,95054.00
2023-01-13T08:45:22.415Z,95054.00
2023-01-13T08:46:22.024Z,95050.00
2023-01-13T08:47:21.986Z,95054.00
2023-01-13T08:48:22.256Z,95054.00
2023-01-13T08:49:22.268Z,95056.00
2023-01-13T08:51:21.914Z,95058.00
2023-01-13T08:52:21.902Z,95062.00
2023-01-13T08:53:22.231Z,95066.00
2023-01-13T08:54:21.917Z,95066.00
2023-01-13T08:55:21.892Z,95064.00
2023-01-13T08:56:22.254Z,95066.00
2023-01-13T08:57:21.991Z,95068.00
2023-01-13T08:58:21.836Z,95076.00
2023-01-13T08:59:21.847Z,95076.00
2023-01-13T09:00:21.835Z,95077.00
2023-01-13T09:01:22.413Z,95077.00
2023-01-13T09:02:21.843Z,95079.00
2023-01-13T09:03:21.816Z,95081.00
2023-01-13T09:04:21.858Z,95077.00
2023-01-13T09:05:21.792Z,95076.00
2023-01-13T09:06:22.260Z,95076.00
2023-01-13T09:07:21.775Z,95077.00
2023-01-13T09:08:21.763Z,95076.00
2023-01-13T09:09:21.763Z,95077.00
2023-01-13T09:10:21.787Z,95077.00
2023-01-13T09:11:21.773Z,95079.00
2023-01-13T09:12:21.747Z,95074.00
2023-01-13T09:13:21.718Z,95074.00
2023-01-13T09:14:21.767Z,95072.00
2023-01-13T09:15:21.729Z,95074.00
2023-01-13T09:16:21.694Z,95076.00
2023-01-13T09:17:21.673Z,95072.00
2023-01-13T09:18:21.670Z,95070.00
2023-01-13T09:19:21.656Z,95066.00
2023-01-13T09:20:21.776Z,95060.00
2023-01-13T09:21:21.642Z,95062.00
2023-01-13T09:22:21.650Z,95056.00
2023-01-13T09:23:21.627Z,95060.00
2023-01-13T09:24:21.621Z,95060.00
2023-01-13T09:25:21.758Z,95060.00
2023-01-13T09:26:21.711Z,95066.00
2023-01-13T09:27:21.570Z,95064.00
2023-01-13T09:28:21.576Z,95054.00
2023-01-13T09:29:21.580Z,95058.00
2023-01-13T09:30:21.772Z,95054.00
2023-01-13T09:31:21.596Z,95050.00
2023-01-13T09:32:21.517Z,95050.00
2023-01-13T09:33:21.529Z,95046.00
2023-01-13T09:34:21.532Z,95042.00
2023-01-13T09:35:21.510Z,95040.00
2023-01-13T09:36:21.504Z,95044.00
2023-01-13T09:37:21.778Z,95042.00
2023-01-13T09:38:21.498Z,95042.00
2023-01-13T09:39:21.514Z,95036.00
2023-01-13T09:40:21.494Z,95036.00
2023-01-13T09:41:21.480Z,95040.00
2023-01-13T09:42:21.814Z,95038.00
2023-01-13T09:44:21.435Z,95036.00
2023-01-13T09:45:21.424Z,95036.00
2023-01-13T09:46:21.472Z,95044.00
2023-01-13T09:47:21.783Z,95044.00
2023-01-13T09:48:21.530Z,95044.00
2023-01-13T09:49:21.431Z,95040.00
2023-01-13T09:50:21.446Z,95042.00
2023-01-13T09:51:21.809Z,95044.00
2023-01-13T09:52:21.378Z,95040.00
2023-01-13T09:53:21.378Z,95036.00
2023-01-13T09:54:21.351Z,95038.00
2023-01-13T09:55:21.357Z,95036.00
2023-01-13T09:56:21.790Z,95036.00
2023-01-13T09:57:21.791Z,95040.00
2023-01-13T09:59:21.318Z,95036.00
2023-01-13T10:00:21.278Z,95036.00
2023-01-13T10:01:21.318Z,95034.00
2023-01-13T10:02:21.392Z,95036.00
2023-01-13T10:03:21.350Z,95034.00
2023-01-13T10:04:21.328Z,95036.00
2023-01-13T10:05:21.299Z,95038.00
2023-01-13T10:06:21.263Z,95042.00
2023-01-13T10:07:23.038Z,95042.00
2023-01-13T10:08:21.202Z,95038.00
2023-01-13T10:09:21.213Z,95032.00
2023-01-13T10:10:21.289Z,95036.00
2023-01-13T10:11:21.253Z,95038.00
2023-01-13T10:12:21.319Z,95042.00
2023-01-13T10:13:21.184Z,95040.00
2023-01-13T10:14:21.177Z,95038.00
2023-01-13T10:15:21.165Z,95038.00
2023-01-13T10:16:21.273Z,95034.00
2023-01-13T10:17:21.294Z,95036.00
2023-01-13T10:18:21.140Z,95034.00
2023-01-13T10:19:21.108Z,95027.00
2023-01-13T10:20:21.104Z,95025.00
2023-01-13T10:21:21.089Z,95021.00
2023-01-13T10:22:21.075Z,95017.00
2023-01-13T10:23:21.066Z,95017.00
2023-01-13T10:24:21.064Z,95013.00
2023-01-13T10:25:21.068Z,95011.00
2023-01-13T10:27:21.034Z,95005.00
2023-01-13T10:28:21.118Z,95003.00
2023-01-13T10:29:21.116Z,94999.00
2023-01-13T10:30:21.394Z,94999.00
2023-01-13T10:31:21.047Z,94997.00
2023-01-13T10:32:20.983Z,94997.00
2023-01-13T10:33:20.997Z,94991.00
2023-01-13T10:34:20.973Z,94987.00
2023-01-13T10:35:21.291Z,94987.00
2023-01-13T10:36:20.972Z,94983.00
2023-01-13T10:37:21.278Z,94989.00
2023-01-13T10:38:20.945Z,94982.00
2023-01-13T10:39:20.927Z,94983.00
2023-01-13T10:41:20.927Z,94982.00
2023-01-13T10:42:21.275Z,94985.00
2023-01-13T10:43:20.939Z,94983.00
2023-01-13T10:44:20.918Z,94982.00
2023-01-13T10:45:20.880Z,94982.00
2023-01-13T10:46:20.995Z,94978.00
2023-01-13T10:47:21.294Z,94972.00
2023-01-13T10:48:20.876Z,94974.00
2023-01-13T10:49:21.191Z,94972.00
2023-01-13T10:50:20.871Z,94968.00
2023-01-13T10:53:20.796Z,94970.00
2023-01-13T10:54:20.804Z,94972.00
2023-01-13T10:55:20.799Z,94968.00
2023-01-13T10:56:20.782Z,94970.00
2023-01-13T10:57:20.791Z,94968.00
2023-01-13T10:58:20.827Z,94972.00
2023-01-13T10:59:20.816Z,94972.00
2023-01-13T11:00:20.920Z,94970.00
2023-01-13T11:02:25.965Z,94970.00
2023-01-13T11:03:20.729Z,94972.00
2023-01-13T11:04:20.817Z,94972.00
2023-01-13T11:05:20.750Z,94972.00
2023-01-13T11:06:20.709Z,94974.00
2023-01-13T11:07:20.672Z,94966.00
2023-01-13T11:08:20.664Z,94958.00
2023-01-13T11:09:20.665Z,94954.00
2023-01-13T11:10:20.682Z,94950.00
2023-01-13T11:11:20.639Z,94952.00
2023-01-13T11:12:20.769Z,94952.00
2023-01-13T11:13:20.795Z,94958.00
2023-01-13T11:14:20.638Z,94954.00
2023-01-13T11:15:20.632Z,94950.00
2023-01-13T11:16:21.096Z,94950.00
2023-01-13T11:17:20.804Z,94954.00
2023-01-13T11:18:20.792Z,94960.00
2023-01-13T11:20:20.592Z,94952.00
2023-01-13T11:21:20.580Z,94950.00
2023-01-13T11:22:20.883Z,94950.00
2023-01-13T11:23:20.809Z,94950.00
2023-01-13T11:24:20.527Z,94948.00
2023-01-13T11:25:20.514Z,94946.00
2023-01-13T11:26:20.508Z,94944.00
2023-01-13T11:27:20.520Z,94942.00
2023-01-13T11:28:20.831Z,94942.00
2023-01-13T11:29:20.501Z,94940.00
2023-01-13T11:30:20.471Z,94942.00
2023-01-13T11:31:20.588Z,94938.00
2023-01-13T11:32:20.452Z,94936.00
2023-01-13T11:33:20.439Z,94936.00
2023-01-13T11:34:20.464Z,94938.00
2023-01-13T11:35:20.423Z,94940.00
2023-01-13T11:36:20.804Z,94936.00
2023-01-13T11:37:20.833Z,94938.00
2023-01-13T11:38:20.445Z,94936.00
2023-01-13T11:39:20.815Z,94936.00
2023-01-13T11:41:20.797Z,94938.00
2023-01-13T11:42:20.814Z,94935.00
2023-01-13T11:43:20.359Z,94933.00
2023-01-13T11:44:20.354Z,94931.00
2023-01-13T11:45:20.340Z,94929.00
2023-01-13T11:46:20.412Z,94935.00
2023-01-13T11:47:20.830Z,94936.00
2023-01-13T11:48:20.307Z,94935.00
2023-01-13T11:49:22.268Z,94927.00
2023-01-13T11:50:20.317Z,94923.00
2023-01-13T11:51:20.274Z,94909.00
2023-01-13T11:52:20.315Z,94911.00
2023-01-13T11:53:20.283Z,94909.00
2023-01-13T11:54:20.301Z,94905.00
2023-01-13T11:55:22.537Z,94905.00
2023-01-13T11:56:20.251Z,94911.00
2023-01-13T11:57:20.223Z,94909.00
2023-01-13T11:58:20.228Z,94905.00
2023-01-13T11:59:20.209Z,94901.00
2023-01-13T12:00:20.207Z,94905.00
2023-01-13T12:01:23.069Z,94899.00
2023-01-13T12:02:20.276Z,94899.00
2023-01-13T12:03:20.247Z,94897.00
2023-01-13T12:04:20.315Z,94903.00
2023-01-13T12:05:20.154Z,94903.00
2023-01-13T12:06:20.171Z,94901.00
2023-01-13T12:07:22.857Z,94901.00
2023-01-13T12:08:20.139Z,94899.00
2023-01-13T12:09:20.335Z,94903.00
2023-01-13T12:10:20.113Z,94901.00
2023-01-13T12:11:20.136Z,94909.00
2023-01-13T12:12:20.103Z,94909.00
2023-01-13T12:13:20.085Z,94911.00
2023-01-13T12:14:20.313Z,94911.00
2023-01-13T12:15:20.065Z,94907.00
2023-01-13T12:17:20.052Z,94907.00
2023-01-13T12:18:20.079Z,94907.00
2023-01-13T12:19:20.343Z,94909.00
2023-01-13T12:20:20.024Z,94909.00
2023-01-13T12:21:20.076Z,94911.00
2023-01-13T12:22:20.052Z,94913.00
2023-01-13T12:23:20.003Z,94911.00
2023-01-13T12:24:19.986Z,94909.00
2023-01-13T12:25:19.974Z,94903.00
2023-01-13T12:26:19.986Z,94903.00
2023-01-13T12:27:19.961Z,94905.00
2023-01-13T12:28:20.086Z,94899.00
2023-01-13T12:29:19.944Z,94899.00
2023-01-13T12:30:19.950Z,94899.00
2023-01-13T12:31:19.960Z,94899.00
2023-01-13T12:32:19.935Z,94899.00
2023-01-13T12:33:19.906Z,94899.00
2023-01-13T12:34:19.892Z,94897.00
2023-01-13T12:35:20.319Z,94897.00
2023-01-13T12:36:19.890Z,94889.00
2023-01-13T12:37:19.864Z,94885.00
2023-01-13T12:38:19.892Z,94885.00
2023-01-13T12:39:19.851Z,94885.00
2023-01-13T12:40:19.851Z,94880.00
2023-01-13T12:41:19.825Z,94876.00
2023-01-13T12:42:19.821Z,94870.00
2023-01-13T12:43:19.819Z,94868.00
2023-01-13T12:44:19.811Z,94866.00
2023-01-13T12:45:19.819Z,94866.00
2023-01-13T12:46:19.780Z,94866.00
2023-01-13T12:47:19.784Z,94868.00
2023-01-13T12:48:19.787Z,94872.00
2023-01-13T12:49:19.819Z,94876.00
2023-01-13T12:50:19.753Z,94874.00
2023-01-13T12:51:19.749Z,94870.00
2023-01-13T12:52:19.752Z,94870.00
2023-01-13T12:53:19.749Z,94872.00
2023-01-13T12:54:19.745Z,94874.00